Time;durP1;ratioP1;P1;durP2;ratioP2;P2;SDS_P1;SDS_P2;PMS_P1;PMS_P2;Temp;Humidity;BMP_temperature;BMP_pressure;BME280_temperature;BME280_humidity;BME280_pressure;Samples;Min_cycle;Max_cycle;Signal;HPM_P1;HPM_P2
2023/09/23 00:01:13;;;;;;;57.38;54.47;;;;;;;;;;5045918;28;20064;-71
2023/09/23 00:03:38;;;;;;;58.15;55.22;;;;;;;;;;5047559;28;20381;-68
2023/09/23 00:06:04;;;;;;;53.42;50.72;;;;;;;;;;5048953;28;20043;-66
2023/09/23 00:08:29;;;;;;;54.50;51.72;;;;;;;;;;5046849;28;20622;-70
2023/09/23 00:10:55;;;;;;;56.35;53.50;;;;;;;;;;5047052;28;20033;-70
2023/09/23 00:13:21;;;;;;;56.00;53.13;;;;;;;;;;5047461;28;20055;-66
2023/09/23 00:15:52;;;;;;;56.88;54.00;;;;;;;;;;5046262;28;20030;-69
2023/09/23 00:18:18;;;;;;;53.55;50.85;;;;;;;;;;5046897;28;20415;-67
2023/09/23 00:20:46;;;;;;;57.70;54.78;;;;;;;;;;5044349;28;20045;-69
2023/09/23 00:23:15;;;;;;;58.92;55.95;;;;;;;;;;5047929;28;20094;-68
2023/09/23 00:25:40;;;;;;;56.45;53.60;;;;;;;;;;5048838;28;20109;-66
2023/09/23 00:28:11;;;;;;;55.03;52.25;;;;;;;;;;5045431;28;20619;-68
2023/09/23 00:30:39;;;;;;;56.15;53.30;;;;;;;;;;5044974;28;20531;-67
2023/09/23 00:33:05;;;;;;;55.47;52.67;;;;;;;;;;5046099;28;20061;-69
2023/09/23 00:35:34;;;;;;;62.83;59.67;;;;;;;;;;5046892;28;20029;-69
2023/09/23 00:38:00;;;;;;;61.67;58.58;;;;;;;;;;5042964;28;20119;-66
2023/09/23 00:40:32;;;;;;;65.82;62.55;;;;;;;;;;5046499;28;20044;-66
2023/09/23 00:43:06;;;;;;;63.83;60.63;;;;;;;;;;5048121;28;20064;-67
2023/09/23 00:45:34;;;;;;;66.03;62.42;;;;;;;;;;5047527;28;20024;-67
2023/09/23 00:47:59;;;;;;;65.38;62.10;;;;;;;;;;5045446;28;20041;-67
2023/09/23 00:50:25;;;;;;;67.78;64.38;;;;;;;;;;5044383;28;20036;-68
2023/09/23 00:52:52;;;;;;;68.85;65.45;;;;;;;;;;5045324;28;20597;-67
2023/09/23 00:55:24;;;;;;;68.30;64.88;;;;;;;;;;5048975;28;20056;-67
2023/09/23 00:57:53;;;;;;;67.55;64.18;;;;;;;;;;5044437;28;20044;-66
2023/09/23 01:00:31;;;;;;;73.03;69.38;;;;;;;;;;5043775;28;20052;-66
2023/09/23 01:02:58;;;;;;;67.72;64.32;;;;;;;;;;5045534;28;20704;-68
2023/09/23 01:05:27;;;;;;;69.63;66.13;;;;;;;;;;5047659;28;20029;-69
2023/09/23 01:07:56;;;;;;;67.55;64.15;;;;;;;;;;5045578;28;20040;-69
2023/09/23 01:10:22;;;;;;;65.72;62.42;;;;;;;;;;5048070;28;20044;-67
2023/09/23 01:12:47;;;;;;;72.13;68.43;;;;;;;;;;5046091;28;20032;-68
2023/09/23 01:15:13;;;;;;;71.38;67.68;;;;;;;;;;5045765;28;20488;-69
2023/09/23 01:17:38;;;;;;;72.32;68.72;;;;;;;;;;5045182;28;20363;-68
2023/09/23 01:20:08;;;;;;;73.47;69.78;;;;;;;;;;5050143;28;20131;-68
2023/09/23 01:22:34;;;;;;;70.90;67.32;;;;;;;;;;5049210;28;20071;-68
2023/09/23 01:25:00;;;;;;;71.53;67.95;;;;;;;;;;5050567;28;20924;-68
2023/09/23 01:27:25;;;;;;;68.55;65.10;;;;;;;;;;5046953;28;20030;-68
2023/09/23 01:29:53;;;;;;;74.15;70.45;;;;;;;;;;5042869;28;20035;-68
2023/09/23 01:32:40;;;;;;;73.93;70.22;;;;;;;;;;5043849;28;20069;-68
2023/09/23 01:35:06;;;;;;;67.40;64.00;;;;;;;;;;5046400;28;20036;-67
2023/09/23 01:37:32;;;;;;;68.70;65.22;;;;;;;;;;5046549;28;20429;-68
2023/09/23 01:39:58;;;;;;;83.28;79.13;;;;;;;;;;5044656;28;20061;-68
2023/09/23 01:42:24;;;;;;;78.68;74.78;;;;;;;;;;5043337;28;20115;-68
2023/09/23 01:44:50;;;;;;;76.55;72.75;;;;;;;;;;5043091;28;20037;-68
2023/09/23 01:47:17;;;;;;;80.13;76.13;;;;;;;;;;5045540;28;20033;-68
2023/09/23 01:49:43;;;;;;;78.47;74.57;;;;;;;;;;5042300;28;20032;-67
2023/09/23 01:52:08;;;;;;;81.03;77.03;;;;;;;;;;5046716;28;20047;-67
2023/09/23 01:54:34;;;;;;;81.82;77.72;;;;;;;;;;5043519;28;20440;-69
2023/09/23 01:57:01;;;;;;;80.80;76.75;;;;;;;;;;5048057;28;20090;-68
2023/09/23 01:59:27;;;;;;;82.38;78.30;;;;;;;;;;5046264;28;20379;-68
2023/09/23 02:01:52;;;;;;;82.97;78.85;;;;;;;;;;5046960;28;20123;-67
2023/09/23 02:04:18;;;;;;;85.28;81.03;;;;;;;;;;5042922;28;20037;-68
2023/09/23 02:06:43;;;;;;;82.88;78.75;;;;;;;;;;5040780;28;20033;-68
2023/09/23 02:09:09;;;;;;;90.88;86.35;;;;;;;;;;5045847;28;20414;-68
2023/09/23 02:11:37;;;;;;;85.70;81.43;;;;;;;;;;5048358;28;20026;-67
2023/09/23 02:14:06;;;;;;;90.35;85.82;;;;;;;;;;5048393;28;20532;-68
2023/09/23 02:16:33;;;;;;;88.90;84.47;;;;;;;;;;5047575;28;20495;-68
2023/09/23 02:18:58;;;;;;;89.25;84.78;;;;;;;;;;5047188;28;20038;-68
2023/09/23 02:21:27;;;;;;;89.18;84.72;;;;;;;;;;5048565;28;20363;-68
2023/09/23 02:23:55;;;;;;;88.47;84.07;;;;;;;;;;5051108;28;20044;-68
2023/09/23 02:26:22;;;;;;;89.18;84.75;;;;;;;;;;5050053;28;20549;-68
2023/09/23 02:28:48;;;;;;;87.15;82.82;;;;;;;;;;5045276;28;20032;-68
2023/09/23 02:31:14;;;;;;;86.30;81.97;;;;;;;;;;5046987;28;20635;-68
2023/09/23 02:33:40;;;;;;;83.03;78.88;;;;;;;;;;5046020;28;20052;-68
2023/09/23 02:36:06;;;;;;;85.72;81.45;;;;;;;;;;5047065;28;20383;-68
2023/09/23 02:38:32;;;;;;;84.45;80.15;;;;;;;;;;5047909;28;20033;-68
2023/09/23 02:41:03;;;;;;;83.40;79.25;;;;;;;;;;5049111;28;20029;-69
2023/09/23 02:43:29;;;;;;;84.63;80.43;;;;;;;;;;5046231;28;20044;-68
2023/09/23 02:46:00;;;;;;;92.70;88.10;;;;;;;;;;5048063;28;20021;-68
2023/09/23 02:48:26;;;;;;;82.57;78.47;;;;;;;;;;5049014;28;20034;-68
2023/09/23 02:50:51;;;;;;;79.38;75.45;;;;;;;;;;5050073;28;20040;-68
2023/09/23 02:53:17;;;;;;;91.18;86.68;;;;;;;;;;5047834;28;20033;-67
2023/09/23 02:55:51;;;;;;;89.07;84.68;;;;;;;;;;5050960;28;20048;-67
2023/09/23 02:58:18;;;;;;;90.55;86.05;;;;;;;;;;5046249;28;20524;-67
2023/09/23 03:00:57;;;;;;;97.68;92.85;;;;;;;;;;5047446;28;20041;-68
2023/09/23 03:03:23;;;;;;;91.75;87.22;;;;;;;;;;5043750;28;20048;-68
2023/09/23 03:05:55;;;;;;;95.70;90.97;;;;;;;;;;5048019;28;20032;-68
2023/09/23 03:08:22;;;;;;;92.68;88.07;;;;;;;;;;5047619;28;20032;-68
2023/09/23 03:10:49;;;;;;;90.70;86.10;;;;;;;;;;5047124;28;20036;-68
2023/09/23 03:13:16;;;;;;;95.05;90.25;;;;;;;;;;5047361;28;20037;-68
2023/09/23 03:15:48;;;;;;;105.07;99.55;;;;;;;;;;5045328;28;20032;-67
2023/09/23 03:18:27;;;;;;;90.00;85.55;;;;;;;;;;5046856;28;20502;-68
2023/09/23 03:20:54;;;;;;;98.65;93.78;;;;;;;;;;5047193;28;20049;-68
2023/09/23 03:23:20;;;;;;;101.35;96.30;;;;;;;;;;5048861;28;20040;-68
2023/09/23 03:25:47;;;;;;;100.00;95.03;;;;;;;;;;5047885;28;20044;-68
2023/09/23 03:28:15;;;;;;;103.10;97.97;;;;;;;;;;5049459;28;20143;-67
2023/09/23 03:30:43;;;;;;;99.07;94.13;;;;;;;;;;5046647;28;20095;-68
2023/09/23 03:33:08;;;;;;;104.35;99.20;;;;;;;;;;5046477;28;20366;-68
2023/09/23 03:35:36;;;;;;;97.50;92.65;;;;;;;;;;5048071;28;20142;-70
2023/09/23 03:38:03;;;;;;;105.47;100.22;;;;;;;;;;5047455;28;20374;-68
2023/09/23 03:40:29;;;;;;;105.20;99.97;;;;;;;;;;5046991;28;20033;-67
2023/09/23 03:42:55;;;;;;;109.07;103.68;;;;;;;;;;5051705;28;20112;-68
2023/09/23 03:45:20;;;;;;;112.10;106.53;;;;;;;;;;5045345;28;20128;-67
2023/09/23 03:47:46;;;;;;;107.78;102.40;;;;;;;;;;5048813;28;20021;-69
2023/09/23 03:50:15;;;;;;;106.68;101.35;;;;;;;;;;5047170;28;20090;-68
2023/09/23 03:52:42;;;;;;;111.88;106.32;;;;;;;;;;5048062;28;20132;-66
2023/09/23 03:55:13;;;;;;;111.00;105.45;;;;;;;;;;5046081;28;20047;-70
2023/09/23 03:57:39;;;;;;;106.28;100.97;;;;;;;;;;5045171;28;20028;-69
2023/09/23 04:00:19;;;;;;;111.07;105.55;;;;;;;;;;5043694;28;20067;-68
2023/09/23 04:02:49;;;;;;;108.72;103.32;;;;;;;;;;5043438;28;20048;-69
2023/09/23 04:05:15;;;;;;;113.65;107.95;;;;;;;;;;5043343;28;20043;-69
2023/09/23 04:07:50;;;;;;;114.05;108.40;;;;;;;;;;5044871;28;20376;-69
2023/09/23 04:10:23;;;;;;;113.63;107.93;;;;;;;;;;5044702;28;20547;-68
2023/09/23 04:12:49;;;;;;;115.22;109.50;;;;;;;;;;5046452;28;20037;-68
2023/09/23 04:15:15;;;;;;;110.47;104.97;;;;;;;;;;5046973;28;20029;-68
2023/09/23 04:17:41;;;;;;;113.43;107.38;;;;;;;;;;5046700;28;20064;-67
2023/09/23 04:20:10;;;;;;;107.63;102.25;;;;;;;;;;5043485;28;20044;-67
2023/09/23 04:22:38;;;;;;;98.15;93.25;;;;;;;;;;5048678;28;20033;-67
2023/09/23 04:25:05;;;;;;;91.28;86.72;;;;;;;;;;5047193;28;20032;-68
2023/09/23 04:27:36;;;;;;;92.65;87.93;;;;;;;;;;5045089;28;20029;-67
2023/09/23 04:30:11;;;;;;;85.80;81.47;;;;;;;;;;5042275;28;20033;-67
2023/09/23 04:32:39;;;;;;;85.47;81.20;;;;;;;;;;5043646;28;20021;-67
2023/09/23 04:35:09;;;;;;;75.63;71.82;;;;;;;;;;5044281;28;20029;-67
2023/09/23 04:37:37;;;;;;;77.45;73.57;;;;;;;;;;5044535;28;20116;-67
2023/09/23 04:40:11;;;;;;;70.82;67.28;;;;;;;;;;5047547;28;20095;-68
2023/09/23 04:42:42;;;;;;;68.55;65.10;;;;;;;;;;5041304;28;20093;-67
2023/09/23 04:45:09;;;;;;;67.82;64.43;;;;;;;;;;5041591;28;20124;-67
2023/09/23 04:47:35;;;;;;;63.35;60.15;;;;;;;;;;5044265;28;20044;-67
2023/09/23 04:50:04;;;;;;;66.68;63.03;;;;;;;;;;5046798;28;20063;-67
2023/09/23 04:52:34;;;;;;;57.55;54.65;;;;;;;;;;5045655;28;20029;-67
2023/09/23 04:55:00;;;;;;;58.35;55.40;;;;;;;;;;5050331;28;20089;-68
2023/09/23 04:57:25;;;;;;;57.03;54.15;;;;;;;;;;5047232;28;20037;-68
2023/09/23 04:59:52;;;;;;;54.80;52.03;;;;;;;;;;5042813;28;20366;-66
2023/09/23 05:02:17;;;;;;;48.85;46.35;;;;;;;;;;5047941;28;20093;-67
2023/09/23 05:04:46;;;;;;;50.05;47.50;;;;;;;;;;5044592;28;20509;-68
2023/09/23 05:07:12;;;;;;;51.17;48.58;;;;;;;;;;5044437;28;20026;-67
2023/09/23 05:09:39;;;;;;;56.58;53.72;;;;;;;;;;5042519;28;20037;-68
2023/09/23 05:12:05;;;;;;;51.88;49.25;;;;;;;;;;5047434;28;20042;-68
2023/09/23 05:14:30;;;;;;;51.38;48.78;;;;;;;;;;5046039;28;20049;-67
2023/09/23 05:16:58;;;;;;;58.60;55.63;;;;;;;;;;5044031;28;20103;-68
2023/09/23 05:19:23;;;;;;;66.00;62.67;;;;;;;;;;5042694;28;20047;-68
2023/09/23 05:21:50;;;;;;;70.47;66.97;;;;;;;;;;5045555;28;20041;-69
2023/09/23 05:24:15;;;;;;;67.30;63.90;;;;;;;;;;5045098;28;20086;-67
2023/09/23 05:26:42;;;;;;;62.92;59.72;;;;;;;;;;5037037;28;20076;-68
2023/09/23 05:29:08;;;;;;;68.93;65.47;;;;;;;;;;5038246;28;20095;-68
2023/09/23 05:31:36;;;;;;;63.58;60.38;;;;;;;;;;5038496;28;20029;-66
2023/09/23 05:34:02;;;;;;;74.63;70.82;;;;;;;;;;5043944;28;20057;-67
2023/09/23 05:36:27;;;;;;;72.82;69.20;;;;;;;;;;5039050;28;20515;-67
2023/09/23 05:38:53;;;;;;;70.18;66.65;;;;;;;;;;5042329;28;20061;-67
2023/09/23 05:41:23;;;;;;;64.97;61.70;;;;;;;;;;5040925;28;20036;-67
2023/09/23 05:43:49;;;;;;;71.90;68.32;;;;;;;;;;5040003;28;20041;-67
2023/09/23 05:46:15;;;;;;;74.07;70.35;;;;;;;;;;5038197;28;20657;-68
2023/09/23 05:48:40;;;;;;;71.75;68.15;;;;;;;;;;5038012;28;20044;-67
2023/09/23 05:51:06;;;;;;;69.53;66.03;;;;;;;;;;5039919;28;20524;-69
2023/09/23 05:53:33;;;;;;;70.50;67.00;;;;;;;;;;5039053;28;20120;-68
2023/09/23 05:56:01;;;;;;;72.55;68.85;;;;;;;;;;5037959;28;20087;-67
2023/09/23 05:58:27;;;;;;;69.72;66.18;;;;;;;;;;5038968;28;20103;-68
2023/09/23 06:00:52;;;;;;;74.95;71.20;;;;;;;;;;5037322;28;20052;-68
2023/09/23 06:03:18;;;;;;;75.28;71.53;;;;;;;;;;5039860;28;20060;-67
2023/09/23 06:05:47;;;;;;;80.00;76.03;;;;;;;;;;5037803;28;20049;-68
2023/09/23 06:08:12;;;;;;;77.55;73.65;;;;;;;;;;5039317;28;20141;-68
2023/09/23 06:10:39;;;;;;;87.80;82.78;;;;;;;;;;5036448;28;20065;-67
2023/09/23 06:13:07;;;;;;;95.93;91.20;;;;;;;;;;5033717;28;20544;-67
2023/09/23 06:15:33;;;;;;;84.50;80.28;;;;;;;;;;5035119;28;20386;-67
2023/09/23 06:17:59;;;;;;;89.22;84.78;;;;;;;;;;5034298;28;20026;-67
2023/09/23 06:20:25;;;;;;;82.72;78.60;;;;;;;;;;5038842;28;20037;-67
2023/09/23 06:22:50;;;;;;;81.30;77.28;;;;;;;;;;5036263;28;20091;-67
2023/09/23 06:25:16;;;;;;;91.47;86.88;;;;;;;;;;5033715;28;20094;-67
2023/09/23 06:27:42;;;;;;;85.70;81.45;;;;;;;;;;5038471;28;20043;-67
2023/09/23 06:30:08;;;;;;;87.70;82.97;;;;;;;;;;5039872;28;20039;-68
2023/09/23 06:32:34;;;;;;;99.07;94.18;;;;;;;;;;5039244;28;20463;-66
2023/09/23 06:34:59;;;;;;;102.28;97.18;;;;;;;;;;5040731;28;20041;-68
2023/09/23 06:37:24;;;;;;;168.50;159.82;;;;;;;;;;5041212;28;20519;-68
2023/09/23 06:39:50;;;;;;;112.43;106.82;;;;;;;;;;5036854;28;20036;-66
2023/09/23 06:42:15;;;;;;;116.63;110.85;;;;;;;;;;5043686;28;20033;-66
2023/09/23 06:44:42;;;;;;;107.85;102.50;;;;;;;;;;5039002;28;20616;-67
2023/09/23 06:47:08;;;;;;;118.45;112.53;;;;;;;;;;5039785;28;20033;-68
2023/09/23 06:49:34;;;;;;;115.30;109.55;;;;;;;;;;5038380;28;20080;-68
2023/09/23 06:51:59;;;;;;;131.70;125.15;;;;;;;;;;5043261;28;20505;-68
2023/09/23 06:54:24;;;;;;;115.25;109.50;;;;;;;;;;5039424;28;20044;-64
2023/09/23 06:56:54;;;;;;;109.70;104.18;;;;;;;;;;5043805;28;20528;-68
2023/09/23 06:59:19;;;;;;;107.50;101.95;;;;;;;;;;5047755;28;20025;-68
2023/09/23 07:01:45;;;;;;;112.60;107.03;;;;;;;;;;5039414;28;20348;-67
2023/09/23 07:04:10;;;;;;;103.30;98.18;;;;;;;;;;5042314;28;20467;-68
2023/09/23 07:06:35;;;;;;;95.35;90.63;;;;;;;;;;5045205;28;20075;-66
2023/09/23 07:09:04;;;;;;;90.28;85.80;;;;;;;;;;5044374;28;20133;-66
2023/09/23 07:11:30;;;;;;;72.82;69.18;;;;;;;;;;5044675;28;20103;-68
2023/09/23 07:13:56;;;;;;;71.53;67.95;;;;;;;;;;5045399;28;20407;-66
2023/09/23 07:16:22;;;;;;;58.05;55.13;;;;;;;;;;5040919;28;20366;-65
2023/09/23 07:18:47;;;;;;;54.03;51.15;;;;;;;;;;5041776;28;20060;-65
2023/09/23 07:21:13;;;;;;;47.00;44.63;;;;;;;;;;5041278;28;20033;-68
2023/09/23 07:23:38;;;;;;;44.42;42.17;;;;;;;;;;5043515;28;20123;-66
2023/09/23 07:26:04;;;;;;;46.72;44.33;;;;;;;;;;5047375;28;20056;-64
2023/09/23 07:28:30;;;;;;;44.97;42.70;;;;;;;;;;5046357;28;20038;-64
2023/09/23 07:30:56;;;;;;;44.97;42.70;;;;;;;;;;5042645;28;20142;-64
2023/09/23 07:33:22;;;;;;;42.45;40.28;;;;;;;;;;5046045;28;20429;-64
2023/09/23 07:35:47;;;;;;;46.30;43.92;;;;;;;;;;5038233;28;20029;-65
2023/09/23 07:38:12;;;;;;;49.95;47.38;;;;;;;;;;5038944;28;20045;-65
2023/09/23 07:40:39;;;;;;;48.88;46.22;;;;;;;;;;5042219;28;20530;-65
2023/09/23 07:43:05;;;;;;;52.03;49.40;;;;;;;;;;5044088;28;20131;-65
2023/09/23 07:45:30;;;;;;;53.15;50.45;;;;;;;;;;5041353;28;20128;-66
2023/09/23 07:47:56;;;;;;;57.65;54.72;;;;;;;;;;5041323;28;20033;-64
2023/09/23 07:50:22;;;;;;;50.00;47.45;;;;;;;;;;5043919;28;20033;-65
2023/09/23 07:52:47;;;;;;;48.90;46.35;;;;;;;;;;5041909;28;20406;-65
2023/09/23 07:55:13;;;;;;;49.17;46.70;;;;;;;;;;5048013;28;20035;-65
2023/09/23 07:57:39;;;;;;;49.90;47.35;;;;;;;;;;5044768;28;20667;-66
2023/09/23 08:00:08;;;;;;;45.65;43.35;;;;;;;;;;5040902;28;20039;-64
2023/09/23 08:02:35;;;;;;;47.53;45.10;;;;;;;;;;5041712;28;20459;-65
2023/09/23 08:05:04;;;;;;;42.35;40.20;;;;;;;;;;5042065;28;20067;-65
2023/09/23 08:07:32;;;;;;;45.45;43.15;;;;;;;;;;5041491;28;20071;-65
2023/09/23 08:09:58;;;;;;;48.50;46.05;;;;;;;;;;5040621;28;20029;-64
2023/09/23 08:12:24;;;;;;;48.80;46.33;;;;;;;;;;5044586;28;20051;-68
2023/09/23 08:14:51;;;;;;;51.42;48.50;;;;;;;;;;5042053;28;20060;-68
2023/09/23 08:17:17;;;;;;;47.22;44.63;;;;;;;;;;5044570;28;20033;-67
2023/09/23 08:19:44;;;;;;;43.30;41.10;;;;;;;;;;5047395;28;20843;-68
2023/09/23 08:22:09;;;;;;;40.42;38.33;;;;;;;;;;5047867;28;20036;-69
2023/09/23 08:24:35;;;;;;;35.92;34.08;;;;;;;;;;5041618;28;20388;-68
2023/09/23 08:27:03;;;;;;;30.00;28.40;;;;;;;;;;5041551;28;20040;-66
2023/09/23 08:29:29;;;;;;;27.67;26.25;;;;;;;;;;5043006;28;20336;-67
2023/09/23 08:31:55;;;;;;;26.38;24.70;;;;;;;;;;5041263;28;20481;-67
2023/09/23 08:34:20;;;;;;;27.23;25.63;;;;;;;;;;5047037;28;20129;-68
2023/09/23 08:36:46;;;;;;;27.27;25.70;;;;;;;;;;5042119;28;20106;-66
2023/09/23 08:39:11;;;;;;;24.20;22.90;;;;;;;;;;5041684;28;20032;-68
2023/09/23 08:41:37;;;;;;;24.25;22.95;;;;;;;;;;5038291;28;20022;-68
2023/09/23 08:44:05;;;;;;;22.35;21.00;;;;;;;;;;5040392;28;20175;-69
2023/09/23 08:46:32;;;;;;;21.08;19.98;;;;;;;;;;5041596;28;20056;-69
2023/09/23 08:49:01;;;;;;;21.77;20.58;;;;;;;;;;5039580;28;20036;-67
2023/09/23 08:51:30;;;;;;;22.30;21.10;;;;;;;;;;5040274;28;20187;-67
2023/09/23 08:53:55;;;;;;;24.60;22.85;;;;;;;;;;5038130;28;20029;-68
2023/09/23 08:56:21;;;;;;;24.92;23.13;;;;;;;;;;5040763;28;20030;-68
2023/09/23 08:58:50;;;;;;;25.70;24.33;;;;;;;;;;5038207;28;20090;-68
2023/09/23 09:01:17;;;;;;;25.60;24.20;;;;;;;;;;5044754;28;20355;-69
2023/09/23 09:03:43;;;;;;;26.83;25.40;;;;;;;;;;5039675;28;20473;-68
2023/09/23 09:06:18;;;;;;;27.83;26.35;;;;;;;;;;5038396;28;20048;-68
2023/09/23 09:08:44;;;;;;;26.98;25.58;;;;;;;;;;5039409;28;20033;-67
2023/09/23 09:11:09;;;;;;;26.45;25.05;;;;;;;;;;5038992;28;20033;-68
2023/09/23 09:13:36;;;;;;;27.42;25.98;;;;;;;;;;5035116;28;20033;-68
2023/09/23 09:16:05;;;;;;;23.35;22.10;;;;;;;;;;5038391;28;20449;-67
2023/09/23 09:18:31;;;;;;;23.58;22.33;;;;;;;;;;5040700;28;20077;-67
2023/09/23 09:20:56;;;;;;;21.30;20.17;;;;;;;;;;5041722;28;20045;-67
2023/09/23 09:23:30;;;;;;;22.38;21.17;;;;;;;;;;5040091;28;20098;-67
2023/09/23 09:25:55;;;;;;;21.63;20.38;;;;;;;;;;5040048;28;20061;-67
2023/09/23 09:28:21;;;;;;;18.60;17.60;;;;;;;;;;5042953;28;20067;-68
2023/09/23 09:30:55;;;;;;;19.63;18.52;;;;;;;;;;5040399;28;21231;-67
2023/09/23 09:33:24;;;;;;;18.80;17.77;;;;;;;;;;5040269;28;20120;-67
2023/09/23 09:35:54;;;;;;;18.30;17.30;;;;;;;;;;5040551;28;20151;-67
2023/09/23 09:38:23;;;;;;;20.20;19.10;;;;;;;;;;5041033;28;20084;-69
2023/09/23 09:40:49;;;;;;;18.63;17.63;;;;;;;;;;5043036;28;20091;-67
2023/09/23 09:43:16;;;;;;;16.80;15.90;;;;;;;;;;5044748;28;20041;-68
2023/09/23 09:45:44;;;;;;;17.00;16.10;;;;;;;;;;5036530;28;20037;-68
2023/09/23 09:48:12;;;;;;;17.67;16.67;;;;;;;;;;5041009;28;20045;-67
2023/09/23 09:50:39;;;;;;;17.00;16.00;;;;;;;;;;5038719;28;20030;-69
2023/09/23 09:53:06;;;;;;;17.42;16.33;;;;;;;;;;5041049;28;20040;-67
2023/09/23 09:55:32;;;;;;;17.30;16.20;;;;;;;;;;5043618;28;20049;-68
2023/09/23 09:58:01;;;;;;;14.80;14.00;;;;;;;;;;5044884;28;20139;-69
2023/09/23 10:00:27;;;;;;;14.93;14.13;;;;;;;;;;5040245;28;20076;-70
2023/09/23 10:03:08;;;;;;;13.98;13.18;;;;;;;;;;5041563;28;20092;-67
2023/09/23 10:05:46;;;;;;;13.30;12.50;;;;;;;;;;5038613;28;20043;-68
2023/09/23 10:08:19;;;;;;;14.15;13.35;;;;;;;;;;5036505;28;20060;-68
2023/09/23 10:10:49;;;;;;;13.73;12.93;;;;;;;;;;5042038;28;20084;-68
2023/09/23 10:13:17;;;;;;;13.48;12.57;;;;;;;;;;5041920;28;20098;-68
2023/09/23 10:15:43;;;;;;;13.57;12.75;;;;;;;;;;5040159;28;20029;-67
2023/09/23 10:18:13;;;;;;;13.48;12.68;;;;;;;;;;5036177;28;20033;-68
2023/09/23 10:20:56;;;;;;;12.85;12.10;;;;;;;;;;5037771;28;20116;-67
2023/09/23 10:23:22;;;;;;;13.75;12.73;;;;;;;;;;5039004;28;20127;-68
2023/09/23 10:25:52;;;;;;;13.57;12.77;;;;;;;;;;5040035;28;20124;-69
2023/09/23 10:28:23;;;;;;;13.80;13.00;;;;;;;;;;5041321;28;20536;-67
2023/09/23 10:31:02;;;;;;;14.02;13.23;;;;;;;;;;5041020;28;20680;-68
2023/09/23 10:33:30;;;;;;;13.55;12.75;;;;;;;;;;5045316;28;20041;-69
2023/09/23 10:36:00;;;;;;;13.85;13.05;;;;;;;;;;5045412;28;20048;-68
2023/09/23 10:38:30;;;;;;;14.85;14.02;;;;;;;;;;5041325;28;20041;-68
2023/09/23 10:40:56;;;;;;;14.43;13.63;;;;;;;;;;5042734;28;20032;-70
2023/09/23 10:43:22;;;;;;;14.55;13.75;;;;;;;;;;5049391;28;20353;-71
2023/09/23 10:45:56;;;;;;;12.90;12.10;;;;;;;;;;5041166;28;20112;-69
2023/09/23 10:48:22;;;;;;;13.65;12.85;;;;;;;;;;5046444;28;20036;-69
2023/09/23 10:50:49;;;;;;;12.30;11.60;;;;;;;;;;5040157;28;20655;-69
2023/09/23 10:53:15;;;;;;;12.73;11.93;;;;;;;;;;5045018;28;20458;-68
2023/09/23 10:55:40;;;;;;;12.55;11.75;;;;;;;;;;5042693;28;20618;-68
2023/09/23 10:58:12;;;;;;;13.13;12.32;;;;;;;;;;5028038;28;20861;-68
2023/09/23 11:00:39;;;;;;;12.63;11.93;;;;;;;;;;5058186;28;20033;-68
2023/09/23 11:03:16;;;;;;;18.90;13.85;;;;;;;;;;5044329;28;20028;-67
2023/09/23 11:05:43;;;;;;;12.60;11.90;;;;;;;;;;5043041;28;20036;-69
2023/09/23 11:08:14;;;;;;;13.77;12.98;;;;;;;;;;5042997;28;20017;-68
2023/09/23 11:10:41;;;;;;;13.45;12.65;;;;;;;;;;5043946;28;20433;-68
2023/09/23 11:13:09;;;;;;;15.30;14.00;;;;;;;;;;5047204;28;20463;-71
2023/09/23 11:15:45;;;;;;;15.52;14.52;;;;;;;;;;5040966;28;20492;-68
2023/09/23 11:18:13;;;;;;;12.20;11.50;;;;;;;;;;5042685;28;20631;-68
2023/09/23 11:20:43;;;;;;;14.52;13.73;;;;;;;;;;5046051;28;20063;-69
2023/09/23 11:23:10;;;;;;;12.57;11.88;;;;;;;;;;5045972;28;20025;-66
2023/09/23 11:25:37;;;;;;;12.90;12.10;;;;;;;;;;5045500;28;20143;-66
2023/09/23 11:28:03;;;;;;;15.73;14.55;;;;;;;;;;5042635;28;20056;-68
2023/09/23 11:30:29;;;;;;;14.63;13.82;;;;;;;;;;5044512;28;20358;-68
2023/09/23 11:32:56;;;;;;;12.50;11.70;;;;;;;;;;5046476;28;20040;-68
2023/09/23 11:35:22;;;;;;;12.77;11.98;;;;;;;;;;5045184;28;20033;-67
2023/09/23 11:37:48;;;;;;;14.60;13.80;;;;;;;;;;5041155;28;20059;-68
2023/09/23 11:40:17;;;;;;;12.40;11.70;;;;;;;;;;5044866;28;20478;-68
2023/09/23 11:42:42;;;;;;;13.07;12.30;;;;;;;;;;5043007;28;20051;-67
2023/09/23 11:45:12;;;;;;;13.10;12.35;;;;;;;;;;5047053;28;20063;-69
2023/09/23 11:47:38;;;;;;;12.98;12.13;;;;;;;;;;5043378;28;20119;-69
2023/09/23 11:50:05;;;;;;;13.57;12.77;;;;;;;;;;5045394;28;20067;-75
2023/09/23 11:52:32;;;;;;;14.05;13.25;;;;;;;;;;5044130;28;20347;-65
2023/09/23 11:54:57;;;;;;;13.45;12.65;;;;;;;;;;5042950;28;20029;-65
2023/09/23 11:57:23;;;;;;;16.27;15.38;;;;;;;;;;5043774;28;20380;-66
2023/09/23 11:59:48;;;;;;;12.90;12.18;;;;;;;;;;5040300;28;20473;-65
2023/09/23 12:02:14;;;;;;;13.13;12.32;;;;;;;;;;5041152;28;20032;-70
2023/09/23 12:04:40;;;;;;;13.75;12.85;;;;;;;;;;5041590;28;20045;-66
2023/09/23 12:07:06;;;;;;;18.63;17.63;;;;;;;;;;5044387;28;20063;-67
2023/09/23 12:09:34;;;;;;;21.38;20.10;;;;;;;;;;5038976;28;20052;-71
2023/09/23 12:12:01;;;;;;;25.20;23.90;;;;;;;;;;5040910;28;20034;-71
2023/09/23 12:14:26;;;;;;;28.73;27.13;;;;;;;;;;5037414;28;20045;-67
2023/09/23 12:16:52;;;;;;;32.35;30.65;;;;;;;;;;5044002;28;20024;-66
2023/09/23 12:19:17;;;;;;;28.88;27.38;;;;;;;;;;5035106;28;20037;-68
2023/09/23 12:21:42;;;;;;;37.55;35.63;;;;;;;;;;5041032;28;20110;-68
2023/09/23 12:24:08;;;;;;;35.67;33.78;;;;;;;;;;5037992;28;20044;-72
2023/09/23 12:26:35;;;;;;;31.52;29.85;;;;;;;;;;5041682;28;20035;-67
2023/09/23 12:29:01;;;;;;;31.00;29.40;;;;;;;;;;5041100;28;20045;-71
2023/09/23 12:31:26;;;;;;;29.33;27.80;;;;;;;;;;5035449;28;20037;-67
2023/09/23 12:33:52;;;;;;;34.38;32.58;;;;;;;;;;5037323;28;20039;-69
2023/09/23 12:36:17;;;;;;;42.13;39.85;;;;;;;;;;5042640;28;20498;-71
2023/09/23 12:38:43;;;;;;;34.88;33.05;;;;;;;;;;5040560;28;20041;-67
2023/09/23 12:41:08;;;;;;;37.50;35.45;;;;;;;;;;5038454;28;20058;-70
2023/09/23 12:43:33;;;;;;;33.35;31.65;;;;;;;;;;5039297;28;20029;-69
2023/09/23 12:45:59;;;;;;;35.08;33.28;;;;;;;;;;5040052;28;20030;-69
2023/09/23 12:48:25;;;;;;;34.55;32.75;;;;;;;;;;5038580;28;20048;-67
2023/09/23 12:50:51;;;;;;;36.80;34.90;;;;;;;;;;5038565;28;20095;-71
2023/09/23 12:53:16;;;;;;;34.80;32.97;;;;;;;;;;5038292;28;20647;-68
2023/09/23 12:55:42;;;;;;;35.55;33.70;;;;;;;;;;5039012;28;20271;-70
2023/09/23 12:58:08;;;;;;;25.77;24.38;;;;;;;;;;5037685;28;20056;-71
2023/09/23 13:00:34;;;;;;;23.45;22.20;;;;;;;;;;5044857;28;20626;-72
2023/09/23 13:02:59;;;;;;;18.55;17.55;;;;;;;;;;5041375;28;20029;-68
2023/09/23 13:05:25;;;;;;;17.25;16.27;;;;;;;;;;5042477;28;20032;-72
2023/09/23 13:07:51;;;;;;;20.00;18.85;;;;;;;;;;5039199;28;20039;-71
2023/09/23 13:10:16;;;;;;;21.15;19.92;;;;;;;;;;5045546;28;20494;-69
2023/09/23 13:12:42;;;;;;;22.02;20.83;;;;;;;;;;5045418;28;20465;-69
2023/09/23 13:15:08;;;;;;;28.33;26.85;;;;;;;;;;5044871;28;20116;-70
2023/09/23 13:17:33;;;;;;;26.42;25.05;;;;;;;;;;5045827;28;20048;-67
2023/09/23 13:19:59;;;;;;;20.77;19.65;;;;;;;;;;5044034;28;20524;-71
2023/09/23 13:22:25;;;;;;;19.50;18.40;;;;;;;;;;5044067;28;20421;-69
2023/09/23 13:24:54;;;;;;;17.15;16.20;;;;;;;;;;5045217;28;20339;-71
2023/09/23 13:27:20;;;;;;;21.20;19.90;;;;;;;;;;5048035;28;20029;-68
2023/09/23 13:29:46;;;;;;;31.73;30.08;;;;;;;;;;5046312;28;20036;-70
2023/09/23 13:32:11;;;;;;;37.20;35.30;;;;;;;;;;5046936;28;20371;-67
2023/09/23 13:34:37;;;;;;;40.05;38.00;;;;;;;;;;5042548;28;20099;-69
2023/09/23 13:37:02;;;;;;;37.80;35.88;;;;;;;;;;5045245;28;20788;-66
2023/09/23 13:39:37;;;;;;;37.15;35.25;;;;;;;;;;5042369;28;20033;-70
2023/09/23 13:42:04;;;;;;;31.08;29.48;;;;;;;;;;5047181;28;20394;-69
2023/09/23 13:44:30;;;;;;;33.30;31.50;;;;;;;;;;5042788;28;20029;-68
2023/09/23 13:46:55;;;;;;;34.20;32.45;;;;;;;;;;5046638;28;20452;-66
2023/09/23 13:49:20;;;;;;;27.08;25.67;;;;;;;;;;5045245;28;20033;-68
2023/09/23 13:51:46;;;;;;;35.55;33.75;;;;;;;;;;5045816;28;20033;-69
2023/09/23 13:54:11;;;;;;;25.30;23.90;;;;;;;;;;5043723;28;20170;-68
2023/09/23 13:56:37;;;;;;;32.50;30.75;;;;;;;;;;5045481;28;20040;-70
2023/09/23 13:59:02;;;;;;;33.95;32.03;;;;;;;;;;5044089;28;20629;-70
2023/09/23 14:01:31;;;;;;;27.92;26.45;;;;;;;;;;5046557;28;20092;-66
2023/09/23 14:03:56;;;;;;;34.65;32.83;;;;;;;;;;5045787;28;20044;-67
2023/09/23 14:06:22;;;;;;;34.15;32.35;;;;;;;;;;5046051;28;20512;-69
2023/09/23 14:08:47;;;;;;;28.23;26.73;;;;;;;;;;5051850;28;20411;-67
2023/09/23 14:11:13;;;;;;;25.75;24.35;;;;;;;;;;5034888;28;20040;-68
2023/09/23 14:13:40;;;;;;;28.35;26.88;;;;;;;;;;5050165;28;20610;-66